Time;durP1;ratioP1;P1;durP2;ratioP2;P2;SDS_P1;SDS_P2;PMS_P1;PMS_P2;Temp;Humidity;BMP_temperature;BMP_pressure;BME280_temperature;BME280_humidity;BME280_pressure;Samples;Min_cycle;Max_cycle;Signal;HPM_P1;HPM_P2
2021/10/25 00:01:04;;;;;;;;;;;24.90;45.30;;;;;;5096330;28;19922;-78
2021/10/25 00:03:30;;;;;;;;;;;24.90;45.30;;;;;;5097028;28;19908;-82
2021/10/25 00:05:55;;;;;;;;;;;24.90;45.30;;;;;;5130092;27;19965;-81
2021/10/25 00:08:23;;;;;;;;;;;24.90;45.30;;;;;;5096803;28;19912;-78
2021/10/25 00:10:49;;;;;;;;;;;24.90;45.30;;;;;;5096957;28;19909;-77
2021/10/25 00:13:15;;;;;;;;;;;24.90;45.30;;;;;;5095798;28;20396;-80
2021/10/25 00:15:43;;;;;;;;;;;24.90;45.30;;;;;;5130325;27;19916;-79
2021/10/25 00:18:08;;;;;;;;;;;24.80;45.30;;;;;;5097106;28;19908;-80
2021/10/25 00:20:34;;;;;;;;;;;24.80;45.30;;;;;;5096762;28;19912;-79
2021/10/25 00:23:00;;;;;;;;;;;24.90;45.30;;;;;;5130134;27;20352;-79
2021/10/25 00:25:25;;;;;;;;;;;24.80;45.30;;;;;;5096526;28;19948;-81
2021/10/25 00:27:51;;;;;;;;;;;24.90;45.30;;;;;;5096500;28;19908;-82
2021/10/25 00:30:16;;;;;;;;;;;24.80;45.30;;;;;;5129837;27;19908;-78
2021/10/25 00:32:42;;;;;;;;;;;24.80;45.30;;;;;;5096430;28;19919;-80
2021/10/25 00:35:08;;;;;;;;;;;24.80;45.30;;;;;;5096476;28;19908;-80
2021/10/25 00:37:36;;;;;;;;;;;24.80;45.30;;;;;;5096143;28;19924;-80
2021/10/25 00:40:03;;;;;;;;;;;24.80;45.30;;;;;;5095290;28;19908;-82
2021/10/25 00:42:28;;;;;;;;;;;24.80;45.20;;;;;;5096164;28;19908;-80
2021/10/25 00:44:56;;;;;;;;;;;24.80;45.20;;;;;;5096369;28;20371;-78
2021/10/25 00:47:24;;;;;;;;;;;24.80;45.20;;;;;;5128740;27;19908;-80
2021/10/25 00:49:49;;;;;;;;;;;24.80;45.30;;;;;;5095214;28;19912;-81
2021/10/25 00:52:15;;;;;;;;;;;24.80;45.20;;;;;;5129324;27;19958;-82
2021/10/25 00:54:41;;;;;;;;;;;24.80;45.20;;;;;;5129379;27;20459;-77
2021/10/25 00:57:06;;;;;;;;;;;24.80;45.20;;;;;;5128162;27;19919;-80
2021/10/25 00:59:32;;;;;;;;;;;24.80;45.20;;;;;;5094768;28;19998;-80
2021/10/25 01:02:00;;;;;;;;;;;24.80;45.20;;;;;;5095960;28;19908;-80
2021/10/25 01:04:26;;;;;;;;;;;24.80;45.20;;;;;;5095737;28;19934;-81
2021/10/25 01:06:51;;;;;;;;;;;24.80;45.20;;;;;;5129359;27;19919;-80
2021/10/25 01:09:17;;;;;;;;;;;24.80;45.80;;;;;;5095877;28;19912;-79
2021/10/25 01:11:43;;;;;;;;;;;24.80;45.20;;;;;;5129126;27;19919;-80
2021/10/25 01:14:09;;;;;;;;;;;24.80;45.20;;;;;;5128833;27;19908;-78
2021/10/25 01:16:35;;;;;;;;;;;24.80;45.20;;;;;;5094707;28;19993;-80
2021/10/25 01:19:00;;;;;;;;;;;24.80;45.20;;;;;;5128798;27;19908;-81
2021/10/25 01:21:26;;;;;;;;;;;24.80;45.20;;;;;;5095560;28;19919;-79
2021/10/25 01:23:54;;;;;;;;;;;24.80;45.20;;;;;;5128977;27;19908;-79
2021/10/25 01:26:23;;;;;;;;;;;24.80;45.20;;;;;;5095816;28;19908;-81
2021/10/25 01:28:49;;;;;;;;;;;24.80;45.30;;;;;;5094312;28;20256;-82
2021/10/25 01:31:16;;;;;;;;;;;24.70;45.20;;;;;;5128462;27;19908;-78
2021/10/25 01:33:45;;;;;;;;;;;24.70;45.20;;;;;;5095173;28;20386;-78
2021/10/25 01:36:12;;;;;;;;;;;24.70;45.80;;;;;;5095166;28;20406;-80
2021/10/25 01:38:40;;;;;;;;;;;24.80;45.30;;;;;;5094100;28;19920;-77
2021/10/25 01:41:08;;;;;;;;;;;24.70;45.20;;;;;;5127985;27;19920;-80
2021/10/25 01:43:35;;;;;;;;;;;24.70;45.20;;;;;;5095277;28;20276;-80
2021/10/25 01:46:00;;;;;;;;;;;24.70;45.20;;;;;;5128336;27;19912;-77
2021/10/25 01:48:26;;;;;;;;;;;24.80;45.20;;;;;;5095097;28;20003;-81
2021/10/25 01:50:51;;;;;;;;;;;24.80;45.20;;;;;;5094895;28;19908;-80
2021/10/25 01:53:19;;;;;;;;;;;24.80;45.20;;;;;;5095208;28;20460;-80
2021/10/25 01:55:48;;;;;;;;;;;24.70;45.30;;;;;;5094067;28;19912;-80
2021/10/25 01:58:13;;;;;;;;;;;24.80;45.20;;;;;;5127492;28;19912;-81
2021/10/25 02:00:39;;;;;;;;;;;24.70;45.10;;;;;;5095030;28;20348;-81
2021/10/25 02:03:05;;;;;;;;;;;24.70;45.10;;;;;;5128195;28;19958;-79
2021/10/25 02:05:30;;;;;;;;;;;24.70;45.10;;;;;;5095064;28;19938;-83
2021/10/25 02:07:56;;;;;;;;;;;24.70;45.20;;;;;;5094877;28;19970;-77
2021/10/25 02:10:21;;;;;;;;;;;24.70;45.20;;;;;;5098593;28;19945;-77
2021/10/25 02:12:49;;;;;;;;;;;24.70;45.20;;;;;;5099226;28;19965;-79
2021/10/25 02:15:14;;;;;;;;;;;24.70;45.20;;;;;;5098928;28;19920;-81
2021/10/25 02:17:40;;;;;;;;;;;24.70;45.20;;;;;;5098877;28;19908;-79
2021/10/25 02:20:06;;;;;;;;;;;24.70;45.20;;;;;;5099031;28;20234;-80
2021/10/25 02:22:31;;;;;;;;;;;24.70;45.20;;;;;;5098606;28;19915;-79
2021/10/25 02:24:59;;;;;;;;;;;24.70;45.20;;;;;;5132050;27;19918;-77
2021/10/25 02:27:25;;;;;;;;;;;24.70;45.20;;;;;;5098764;28;19912;-80
2021/10/25 02:29:50;;;;;;;;;;;24.70;45.10;;;;;;5098892;28;19912;-84
2021/10/25 02:32:18;;;;;;;;;;;24.70;45.10;;;;;;5098575;28;19908;-77
2021/10/25 02:34:45;;;;;;;;;;;24.70;45.10;;;;;;5131365;27;20057;-77
2021/10/25 02:37:11;;;;;;;;;;;24.70;45.10;;;;;;5098265;28;19908;-80
2021/10/25 02:39:36;;;;;;;;;;;24.70;45.10;;;;;;5097708;28;19928;-78
2021/10/25 02:42:02;;;;;;;;;;;24.70;45.10;;;;;;5098413;28;19985;-82
2021/10/25 02:44:27;;;;;;;;;;;24.70;45.10;;;;;;5098382;28;19912;-79
2021/10/25 02:46:53;;;;;;;;;;;24.70;45.10;;;;;;5098449;28;19908;-78
2021/10/25 02:49:21;;;;;;;;;;;24.70;45.10;;;;;;5098539;28;20029;-79
2021/10/25 02:51:46;;;;;;;;;;;24.70;45.10;;;;;;5098432;28;20225;-77
2021/10/25 02:54:11;;;;;;;;;;;24.70;45.10;;;;;;5098330;28;20531;-81
2021/10/25 02:56:39;;;;;;;;;;;24.70;45.10;;;;;;5098102;28;19908;-79
2021/10/25 02:59:09;;;;;;;;;;;24.70;45.10;;;;;;5098009;28;19924;-79
2021/10/25 03:01:36;;;;;;;;;;;24.70;45.10;;;;;;5097065;28;19968;-78
2021/10/25 03:04:02;;;;;;;;;;;24.70;45.10;;;;;;5114157;28;19909;-79
2021/10/25 03:06:31;;;;;;;;;;;24.60;45.10;;;;;;5114282;28;20016;-77
2021/10/25 03:08:59;;;;;;;;;;;24.70;45.20;;;;;;5097720;28;20065;-78
2021/10/25 03:11:25;;;;;;;;;;;24.60;45.10;;;;;;5097898;28;19923;-80
2021/10/25 03:13:51;;;;;;;;;;;24.60;45.10;;;;;;5113820;28;19908;-81
2021/10/25 03:16:16;;;;;;;;;;;24.70;45.10;;;;;;5131090;27;19911;-81
2021/10/25 03:18:42;;;;;;;;;;;24.70;45.10;;;;;;5097739;28;19991;-80
2021/10/25 03:21:07;;;;;;;;;;;24.60;45.10;;;;;;5096774;28;19908;-79
2021/10/25 03:23:35;;;;;;;;;;;24.60;45.10;;;;;;5114230;28;20324;-79
2021/10/25 03:26:01;;;;;;;;;;;24.60;45.20;;;;;;5131263;27;19909;-78
2021/10/25 03:28:26;;;;;;;;;;;24.70;39.00;;;;;;5131046;27;19912;-79
2021/10/25 03:30:52;;;;;;;;;;;24.20;37.20;;;;;;5131198;27;19961;-84
2021/10/25 03:33:18;;;;;;;;;;;23.80;39.70;;;;;;5130832;27;20351;-83
2021/10/25 03:35:44;;;;;;;;;;;23.90;41.50;;;;;;5097560;28;20343;-82
2021/10/25 03:38:13;;;;;;;;;;;24.10;41.70;;;;;;5130840;27;19981;-82
2021/10/25 03:40:44;;;;;;;;;;;24.20;42.00;;;;;;5097651;28;19968;-85
2021/10/25 03:43:10;;;;;;;;;;;24.30;42.20;;;;;;5129251;27;19908;-81
2021/10/25 03:45:50;;;;;;;;;;;24.40;42.20;;;;;;5096772;28;19935;-82
2021/10/25 03:48:30;;;;;;;;;;;24.50;42.10;;;;;;5127315;27;19963;-80
2021/10/25 03:50:55;;;;;;;;;;;24.60;42.20;;;;;;5097368;28;20011;-80
2021/10/25 04:12:54;;;;;;;;;;;24.70;43.70;;;;;;5095416;28;19923;-81
2021/10/25 04:26:55;;;;;;;;;;;25.00;44.70;;;;;;5096513;28;19931;-79
2021/10/25 04:29:23;;;;;;;;;;;25.00;44.80;;;;;;5096339;28;20343;-83
2021/10/25 04:31:49;;;;;;;;;;;25.00;45.00;;;;;;5096201;28;19908;-81
2021/10/25 04:34:14;;;;;;;;;;;25.00;44.90;;;;;;5095442;28;19912;-79
2021/10/25 04:36:40;;;;;;;;;;;25.00;44.70;;;;;;5095670;28;19934;-82
2021/10/25 04:39:09;;;;;;;;;;;25.10;45.00;;;;;;5094888;28;19938;-80
2021/10/25 04:41:43;;;;;;;;;;;25.10;45.10;;;;;;5095862;28;20213;-77
2021/10/25 04:44:09;;;;;;;;;;;25.10;44.90;;;;;;5095859;28;19922;-78
2021/10/25 04:46:34;;;;;;;;;;;25.10;45.20;;;;;;5096232;28;20007;-78
2021/10/25 04:49:00;;;;;;;;;;;25.20;45.10;;;;;;5094862;28;19912;-79
2021/10/25 04:51:25;;;;;;;;;;;25.30;45.20;;;;;;5094768;28;19912;-77
2021/10/25 04:53:51;;;;;;;;;;;25.30;45.10;;;;;;5094522;28;20034;-79
2021/10/25 04:56:19;;;;;;;;;;;25.40;45.10;;;;;;5128930;27;20060;-79
2021/10/25 04:58:46;;;;;;;;;;;25.40;44.90;;;;;;5095876;28;19912;-79
2021/10/25 05:01:12;;;;;;;;;;;25.40;44.90;;;;;;5094735;28;19915;-80
2021/10/25 05:03:39;;;;;;;;;;;25.50;44.90;;;;;;5095705;28;19908;-80
2021/10/25 05:06:05;;;;;;;;;;;25.50;44.90;;;;;;5095668;28;19908;-83
2021/10/25 05:08:31;;;;;;;;;;;25.50;44.80;;;;;;5094698;28;20256;-85
2021/10/25 05:10:56;;;;;;;;;;;25.50;44.70;;;;;;5128783;27;19908;-83
2021/10/25 05:13:24;;;;;;;;;;;25.50;44.80;;;;;;5094688;28;19969;-80
2021/10/25 05:15:50;;;;;;;;;;;25.60;44.90;;;;;;5095539;28;19916;-83
2021/10/25 05:18:15;;;;;;;;;;;25.60;44.90;;;;;;5095330;28;19972;-85
2021/10/25 05:20:41;;;;;;;;;;;25.60;44.90;;;;;;5094434;28;19908;-83
2021/10/25 05:23:07;;;;;;;;;;;25.60;45.10;;;;;;5128548;27;20002;-83
2021/10/25 05:25:36;;;;;;;;;;;25.60;45.10;;;;;;5111838;28;19915;-83
2021/10/25 05:28:02;;;;;;;;;;;25.60;45.00;;;;;;5095090;28;19919;-83
2021/10/25 05:30:28;;;;;;;;;;;25.60;44.80;;;;;;5128421;27;20344;-82
2021/10/25 05:32:53;;;;;;;;;;;25.60;44.70;;;;;;5094272;28;20027;-83
2021/10/25 05:35:21;;;;;;;;;;;25.60;44.60;;;;;;5130116;27;20321;-83
2021/10/25 05:37:49;;;;;;;;;;;25.60;44.50;;;;;;5129200;27;19920;-83
2021/10/25 05:40:15;;;;;;;;;;;25.60;44.50;;;;;;5129473;27;20371;-83
2021/10/25 05:42:41;;;;;;;;;;;25.60;44.40;;;;;;5095162;28;19908;-83
2021/10/25 05:45:06;;;;;;;;;;;25.60;44.40;;;;;;5110650;28;19911;-83
2021/10/25 05:47:32;;;;;;;;;;;25.60;44.30;;;;;;5128140;27;19951;-84
2021/10/25 05:50:02;;;;;;;;;;;25.50;44.30;;;;;;5093798;28;20259;-83
2021/10/25 05:52:28;;;;;;;;;;;25.60;44.30;;;;;;5093675;28;19909;-83
2021/10/25 05:54:54;;;;;;;;;;;25.50;44.20;;;;;;5094654;28;20260;-84
2021/10/25 05:57:20;;;;;;;;;;;25.50;44.20;;;;;;5093866;28;19919;-84
2021/10/25 05:59:48;;;;;;;;;;;25.50;44.10;;;;;;5127775;28;19934;-83
2021/10/25 06:04:51;;;;;;;;;;;25.50;44.10;;;;;;5125852;28;19960;-85
2021/10/25 06:07:16;;;;;;;;;;;25.50;44.10;;;;;;5093925;28;19995;-84
2021/10/25 06:09:44;;;;;;;;;;;25.50;44.00;;;;;;5110982;28;19969;-84
2021/10/25 06:12:17;;;;;;;;;;;25.50;44.00;;;;;;5095245;28;19907;-82
2021/10/25 06:14:44;;;;;;;;;;;25.50;44.00;;;;;;5094817;28;20257;-83
2021/10/25 06:17:22;;;;;;;;;;;25.60;44.00;;;;;;5127322;28;19919;-83
2021/10/25 06:19:48;;;;;;;;;;;25.50;44.00;;;;;;5093672;28;19915;-80
2021/10/25 06:22:18;;;;;;;;;;;25.60;44.00;;;;;;5111117;28;19908;-84
2021/10/25 06:24:47;;;;;;;;;;;25.50;43.90;;;;;;5094036;28;19943;-83
2021/10/25 06:27:13;;;;;;;;;;;25.50;43.90;;;;;;5095094;28;19908;-85
2021/10/25 06:29:41;;;;;;;;;;;25.50;43.90;;;;;;5127830;28;19912;-82
2021/10/25 06:32:06;;;;;;;;;;;25.60;43.90;;;;;;5110632;28;19908;-84
2021/10/25 06:34:38;;;;;;;;;;;25.50;43.80;;;;;;5127881;28;19919;-85
2021/10/25 06:37:04;;;;;;;;;;;25.50;43.80;;;;;;5094570;28;20307;-83
2021/10/25 06:42:01;;;;;;;;;;;25.50;43.80;;;;;;5126927;28;19961;-84
2021/10/25 06:44:27;;;;;;;;;;;25.50;43.80;;;;;;5094659;28;19908;-84
2021/10/25 06:46:53;;;;;;;;;;;25.50;43.80;;;;;;5093401;28;19961;-85
2021/10/25 06:49:18;;;;;;;;;;;25.50;43.80;;;;;;5093506;28;20002;-83
2021/10/25 06:51:44;;;;;;;;;;;25.50;43.80;;;;;;5093616;28;20075;-83
2021/10/25 06:54:10;;;;;;;;;;;25.50;43.80;;;;;;5127848;28;19908;-83
2021/10/25 06:56:36;;;;;;;;;;;25.50;43.80;;;;;;5131455;27;20023;-84
2021/10/25 06:59:01;;;;;;;;;;;25.50;43.80;;;;;;5098210;28;19944;-83
2021/10/25 07:01:27;;;;;;;;;;;25.50;43.70;;;;;;5096788;28;19916;-84
2021/10/25 07:03:53;;;;;;;;;;;25.60;43.80;;;;;;5097750;28;19912;-81
2021/10/25 07:06:19;;;;;;;;;;;25.50;43.70;;;;;;5130987;27;19908;-85
2021/10/25 07:08:47;;;;;;;;;;;25.50;43.70;;;;;;5130654;27;19982;-82
2021/10/25 07:11:15;;;;;;;;;;;25.60;43.70;;;;;;5129988;27;19908;-84
2021/10/25 07:13:45;;;;;;;;;;;25.50;43.70;;;;;;5113305;28;19909;-84
2021/10/25 07:16:29;;;;;;;;;;;25.50;44.20;;;;;;5129316;27;19908;-81
2021/10/25 08:02:21;;;;;;;;;;;25.70;44.40;;;;;;5096714;28;19909;-84
2021/10/25 08:07:35;;;;;;;;;;;25.80;44.50;;;;;;5127671;27;19995;-84
2021/10/25 08:10:12;;;;;;;;;;;25.80;44.50;;;;;;5097026;28;19923;-82
2021/10/25 08:12:45;;;;;;;;;;;25.80;44.30;;;;;;5096732;28;19908;-84
2021/10/25 08:15:16;;;;;;;;;;;25.90;44.40;;;;;;5128847;27;19927;-83
2021/10/25 08:17:47;;;;;;;;;;;25.90;44.20;;;;;;5098755;28;20352;-86
2021/10/25 08:20:15;;;;;;;;;;;25.90;44.00;;;;;;5129550;27;19973;-82
2021/10/25 08:22:41;;;;;;;;;;;26.00;44.10;;;;;;5129345;27;19912;-83
2021/10/25 08:25:09;;;;;;;;;;;26.10;44.00;;;;;;5097138;28;19908;-84
2021/10/25 08:27:36;;;;;;;;;;;26.10;44.10;;;;;;5112974;28;20001;-83
2021/10/25 08:30:04;;;;;;;;;;;26.10;44.20;;;;;;5112642;28;19912;-84
2021/10/25 08:40:00;;;;;;;;;;;26.00;45.00;;;;;;5130207;27;19912;-86
2021/10/25 08:42:27;;;;;;;;;;;26.00;45.10;;;;;;5112380;28;19908;-83
2021/10/25 08:44:58;;;;;;;;;;;26.00;44.90;;;;;;5112871;28;19932;-89
2021/10/25 08:47:28;;;;;;;;;;;26.00;44.70;;;;;;5113695;28;19908;-88
2021/10/25 08:49:54;;;;;;;;;;;26.10;44.70;;;;;;5096375;28;19911;-86
2021/10/25 08:52:21;;;;;;;;;;;26.10;44.80;;;;;;5096115;28;19908;-83
2021/10/25 08:54:50;;;;;;;;;;;26.00;44.80;;;;;;5112313;28;20328;-86
2021/10/25 08:57:16;;;;;;;;;;;26.00;44.60;;;;;;5096273;28;19980;-82
2021/10/25 08:59:41;;;;;;;;;;;26.10;44.80;;;;;;5129315;27;19930;-83
2021/10/25 09:02:09;;;;;;;;;;;26.10;44.40;;;;;;5129591;27;20007;-84
2021/10/25 09:04:37;;;;;;;;;;;26.10;44.30;;;;;;5131961;27;20340;-84
2021/10/25 09:07:05;;;;;;;;;;;26.10;44.20;;;;;;5135481;27;19938;-83
2021/10/25 09:09:31;;;;;;;;;;;26.10;44.30;;;;;;5134813;27;19911;-84
2021/10/25 09:12:04;;;;;;;;;;;26.20;44.20;;;;;;5100757;28;19908;-86
2021/10/25 09:14:30;;;;;;;;;;;26.20;44.20;;;;;;5097983;28;19908;-86
2021/10/25 09:17:00;;;;;;;;;;;26.20;44.20;;;;;;5129685;27;19912;-86
2021/10/25 09:19:28;;;;;;;;;;;26.20;44.10;;;;;;5112082;28;19916;-81
2021/10/25 09:22:02;;;;;;;;;;;26.10;43.90;;;;;;5132289;27;19908;-85
2021/10/25 09:24:28;;;;;;;;;;;26.10;44.00;;;;;;5129262;27;19908;-83
2021/10/25 09:26:55;;;;;;;;;;;26.10;44.00;;;;;;5128972;27;19935;-83
2021/10/25 09:29:24;;;;;;;;;;;26.00;44.10;;;;;;5128584;27;19923;-84
2021/10/25 09:31:56;;;;;;;;;;;26.10;44.10;;;;;;5128479;27;19973;-85
2021/10/25 09:34:31;;;;;;;;;;;26.00;44.00;;;;;;5128728;27;19908;-83
2021/10/25 09:37:03;;;;;;;;;;;26.10;44.10;;;;;;5094464;28;19919;-86
2021/10/25 09:39:49;;;;;;;;;;;26.10;44.00;;;;;;5111142;28;20364;-84
2021/10/25 09:50:27;;;;;;;;;;;26.10;43.80;;;;;;5095343;28;20015;-84
2021/10/25 09:52:53;;;;;;;;;;;26.10;43.80;;;;;;5094393;28;20343;-83
2021/10/25 09:55:22;;;;;;;;;;;26.10;43.80;;;;;;5095434;28;19908;-80
2021/10/25 09:57:58;;;;;;;;;;;26.10;43.80;;;;;;5127905;27;20008;-84
2021/10/25 10:00:23;;;;;;;;;;;26.10;43.70;;;;;;5110369;28;19908;-88
2021/10/25 10:02:49;;;;;;;;;;;26.20;43.90;;;;;;5128180;28;20056;-86
2021/10/25 10:05:17;;;;;;;;;;;26.10;43.70;;;;;;5111906;28;19916;-85
2021/10/25 10:07:44;;;;;;;;;;;26.10;43.60;;;;;;5110972;28;19908;-83
2021/10/25 10:10:11;;;;;;;;;;;26.10;43.70;;;;;;5110762;28;19939;-83
2021/10/25 10:12:37;;;;;;;;;;;26.10;43.80;;;;;;5110701;28;19908;-86
2021/10/25 10:15:03;;;;;;;;;;;26.10;43.80;;;;;;5127942;28;20007;-82
2021/10/25 10:17:29;;;;;;;;;;;26.10;43.60;;;;;;5094555;28;20007;-85
2021/10/25 10:19:59;;;;;;;;;;;26.10;43.70;;;;;;5127507;28;19920;-81
2021/10/25 10:22:27;;;;;;;;;;;26.10;43.70;;;;;;5110664;28;19923;-85
2021/10/25 10:24:54;;;;;;;;;;;26.10;44.30;;;;;;5111032;28;19995;-84
2021/10/25 10:27:23;;;;;;;;;;;26.10;43.70;;;;;;5110897;28;20007;-85
2021/10/25 10:29:50;;;;;;;;;;;26.10;43.70;;;;;;5128332;27;19960;-82
2021/10/25 10:32:15;;;;;;;;;;;26.10;43.70;;;;;;5098811;28;20408;-80
2021/10/25 10:34:44;;;;;;;;;;;26.10;43.70;;;;;;5098671;28;19919;-86
2021/10/25 10:37:21;;;;;;;;;;;26.10;43.70;;;;;;5098736;28;19908;-84
2021/10/25 10:40:05;;;;;;;;;;;26.10;43.70;;;;;;5097359;28;19912;-84
2021/10/25 10:42:31;;;;;;;;;;;26.20;43.80;;;;;;5098350;28;20003;-81
2021/10/25 10:45:03;;;;;;;;;;;26.20;41.50;;;;;;5131741;27;19939;-81
2021/10/25 10:47:37;;;;;;;;;;;26.10;41.40;;;;;;5129715;27;19943;-83
2021/10/25 10:50:04;;;;;;;;;;;26.10;41.00;;;;;;5129660;27;20041;-82
2021/10/25 10:52:32;;;;;;;;;;;26.00;41.20;;;;;;5097325;28;19908;-83
2021/10/25 10:55:10;;;;;;;;;;;26.10;42.60;;;;;;5137096;27;19919;-83
2021/10/25 11:00:22;;;;;;;;;;;26.10;43.00;;;;;;5098946;28;19966;-87
2021/10/25 11:02:52;;;;;;;;;;;26.00;43.10;;;;;;5098604;28;19920;-82
2021/10/25 11:05:26;;;;;;;;;;;26.10;43.30;;;;;;5131683;27;19998;-84
2021/10/25 11:07:58;;;;;;;;;;;26.10;43.20;;;;;;5097243;28;19963;-84
2021/10/25 11:10:28;;;;;;;;;;;26.10;43.30;;;;;;5131498;27;20008;-82
2021/10/25 11:13:01;;;;;;;;;;;26.10;43.20;;;;;;5097912;28;19908;-81
2021/10/25 11:15:35;;;;;;;;;;;26.10;43.10;;;;;;5129680;27;20349;-83
2021/10/25 11:18:01;;;;;;;;;;;26.10;43.10;;;;;;5129122;27;19908;-81
2021/10/25 11:20:29;;;;;;;;;;;26.10;43.40;;;;;;5131109;27;19979;-84
2021/10/25 11:23:01;;;;;;;;;;;26.20;43.40;;;;;;5113671;28;19920;-82
2021/10/25 11:25:26;;;;;;;;;;;26.20;43.40;;;;;;5114154;28;19908;-84
2021/10/25 11:27:54;;;;;;;;;;;26.20;43.40;;;;;;5098433;28;20400;-81
2021/10/25 11:30:20;;;;;;;;;;;26.20;43.40;;;;;;5131105;27;19959;-84
2021/10/25 11:32:45;;;;;;;;;;;26.20;43.40;;;;;;5097860;28;19966;-85
2021/10/25 11:35:13;;;;;;;;;;;26.30;43.20;;;;;;5113651;28;19908;-82
2021/10/25 11:37:46;;;;;;;;;;;26.30;43.30;;;;;;5097061;28;19920;-80
2021/10/25 11:40:12;;;;;;;;;;;26.30;43.30;;;;;;5128782;27;20326;-84
2021/10/25 11:42:41;;;;;;;;;;;26.30;43.20;;;;;;5111506;28;21587;-83
2021/10/25 11:45:14;;;;;;;;;;;26.20;40.90;;;;;;5113393;28;19999;-81
2021/10/25 11:47:41;;;;;;;;;;;25.90;37.80;;;;;;5113382;28;20341;-79
2021/10/25 11:50:11;;;;;;;;;;;25.40;37.30;;;;;;5097191;28;19912;-83
2021/10/25 11:52:38;;;;;;;;;;;25.20;37.10;;;;;;5096497;28;19908;-85
2021/10/25 11:55:04;;;;;;;;;;;25.00;37.20;;;;;;5130331;27;19947;-83
2021/10/25 11:57:30;;;;;;;;;;;24.80;37.20;;;;;;5113173;28;19908;-83
2021/10/25 11:59:57;;;;;;;;;;;24.70;37.30;;;;;;5130475;27;19909;-82
2021/10/25 12:02:23;;;;;;;;;;;24.60;37.80;;;;;;5112811;28;20329;-82
2021/10/25 12:04:51;;;;;;;;;;;24.60;37.70;;;;;;5095973;28;19908;-84
2021/10/25 12:07:17;;;;;;;;;;;24.50;37.60;;;;;;5096732;28;20341;-85
2021/10/25 12:09:43;;;;;;;;;;;24.50;38.10;;;;;;5129880;27;19912;-88
2021/10/25 12:12:15;;;;;;;;;;;24.60;38.60;;;;;;5095751;28;19908;-82
2021/10/25 12:14:43;;;;;;;;;;;24.70;38.60;;;;;;5095884;28;19919;-84
2021/10/25 12:17:10;;;;;;;;;;;24.90;38.60;;;;;;5112340;28;20008;-82
2021/10/25 12:19:36;;;;;;;;;;;25.00;38.60;;;;;;5129827;27;19912;-83
2021/10/25 12:22:12;;;;;;;;;;;25.20;38.70;;;;;;5095779;28;19934;-81
2021/10/25 12:24:38;;;;;;;;;;;25.30;38.70;;;;;;5130313;27;19916;-82
2021/10/25 12:27:05;;;;;;;;;;;25.40;38.80;;;;;;5112713;28;19918;-83
2021/10/25 12:29:30;;;;;;;;;;;25.50;38.90;;;;;;5129733;27;19916;-81
2021/10/25 12:32:06;;;;;;;;;;;25.60;39.00;;;;;;5096551;28;19966;-82
2021/10/25 12:34:31;;;;;;;;;;;25.60;39.00;;;;;;5112333;28;19912;-82
2021/10/25 12:36:57;;;;;;;;;;;25.70;39.40;;;;;;5095742;28;19969;-81
2021/10/25 12:39:23;;;;;;;;;;;25.70;39.60;;;;;;5095245;28;19920;-83
2021/10/25 12:41:58;;;;;;;;;;;25.80;39.90;;;;;;5095302;28;19918;-81
2021/10/25 12:44:27;;;;;;;;;;;25.80;40.40;;;;;;5129229;27;20233;-82
2021/10/25 12:47:14;;;;;;;;;;;25.80;40.80;;;;;;5095963;28;19908;-82
2021/10/25 12:49:39;;;;;;;;;;;25.90;41.20;;;;;;5095049;28;19912;-81
2021/10/25 12:52:06;;;;;;;;;;;25.90;41.50;;;;;;5095145;28;20019;-82
2021/10/25 12:54:34;;;;;;;;;;;25.90;41.70;;;;;;5096152;28;19969;-83
2021/10/25 12:57:01;;;;;;;;;;;25.90;41.80;;;;;;5095976;28;19908;-80
2021/10/25 12:59:29;;;;;;;;;;;26.00;41.90;;;;;;5095000;28;19912;-79
2021/10/25 13:01:57;;;;;;;;;;;26.00;41.90;;;;;;5095679;28;19993;-81
2021/10/25 13:04:27;;;;;;;;;;;26.00;41.80;;;;;;5128407;27;19916;-83
2021/10/25 13:06:53;;;;;;;;;;;26.10;41.80;;;;;;5094877;28;19942;-83
2021/10/25 13:09:18;;;;;;;;;;;26.00;41.90;;;;;;5128534;27;19962;-79
2021/10/25 13:11:47;;;;;;;;;;;26.10;41.90;;;;;;5095470;28;19948;-81
2021/10/25 13:14:15;;;;;;;;;;;26.10;42.10;;;;;;5095649;28;19916;-81
2021/10/25 13:16:45;;;;;;;;;;;26.10;42.10;;;;;;5095503;28;19919;-80
2021/10/25 13:19:12;;;;;;;;;;;26.10;42.00;;;;;;5127419;27;19927;-81
2021/10/25 13:21:40;;;;;;;;;;;26.10;42.20;;;;;;5128508;27;19916;-80
2021/10/25 13:24:05;;;;;;;;;;;26.10;42.10;;;;;;5128775;27;20012;-81
2021/10/25 13:26:32;;;;;;;;;;;26.10;42.00;;;;;;5095534;28;20465;-81
2021/10/25 13:28:58;;;;;;;;;;;26.10;42.20;;;;;;5128272;27;19965;-79
2021/10/25 13:31:23;;;;;;;;;;;26.10;42.10;;;;;;5128599;27;19912;-82
2021/10/25 13:33:51;;;;;;;;;;;26.20;42.20;;;;;;5095416;28;19919;-81
2021/10/25 13:36:16;;;;;;;;;;;26.20;42.30;;;;;;5095042;28;19909;-80
2021/10/25 13:38:42;;;;;;;;;;;26.20;42.20;;;;;;5094846;28;19973;-78
2021/10/25 13:41:08;;;;;;;;;;;26.10;42.20;;;;;;5094983;28;20260;-84
2021/10/25 13:43:38;;;;;;;;;;;26.10;42.10;;;;;;5095103;28;19912;-85
2021/10/25 13:46:06;;;;;;;;;;;26.10;42.20;;;;;;5095037;28;19907;-79
2021/10/25 13:48:32;;;;;;;;;;;26.10;42.20;;;;;;5094772;28;19916;-80
2021/10/25 13:50:57;;;;;;;;;;;26.10;42.20;;;;;;5094605;28;19957;-82
2021/10/25 13:53:26;;;;;;;;;;;26.10;42.20;;;;;;5128379;27;19908;-80
2021/10/25 13:55:52;;;;;;;;;;;26.10;42.20;;;;;;5095055;28;19916;-80
2021/10/25 13:58:18;;;;;;;;;;;26.10;42.20;;;;;;5095211;28;19908;-80
2021/10/25 14:00:44;;;;;;;;;;;26.10;42.20;;;;;;5093976;28;19909;-79
2021/10/25 14:03:12;;;;;;;;;;;26.10;42.20;;;;;;5094793;28;19923;-79
2021/10/25 14:05:37;;;;;;;;;;;26.10;42.30;;;;;;5093222;28;19956;-82
2021/10/25 14:08:05;;;;;;;;;;;26.10;42.30;;;;;;5110676;28;20337;-84
2021/10/25 14:10:52;;;;;;;;;;;26.10;42.20;;;;;;5094391;28;20241;-82
2021/10/25 14:14:08;;;;;;;;;;;26.20;42.30;;;;;;5094213;28;19908;-79
2021/10/25 14:16:10;;;;;;;;;;;26.20;42.40;;;;;;5090431;28;19916;-82
2021/10/25 14:18:38;;;;;;;;;;;26.20;42.60;;;;;;5093744;28;19938;-77
2021/10/25 14:21:09;;;;;;;;;;;26.20;42.30;;;;;;5094006;28;19908;-80
2021/10/25 14:23:35;;;;;;;;;;;26.20;42.50;;;;;;5093557;28;19968;-82
2021/10/25 14:26:00;;;;;;;;;;;26.20;42.40;;;;;;5093746;28;19995;-79
2021/10/25 14:28:30;;;;;;;;;;;26.20;42.40;;;;;;5094465;28;19958;-82
2021/10/25 14:30:59;;;;;;;;;;;26.30;42.50;;;;;;5094412;28;19962;-81
2021/10/25 14:33:26;;;;;;;;;;;26.20;42.50;;;;;;5093435;28;19923;-80
2021/10/25 14:35:54;;;;;;;;;;;26.20;42.50;;;;;;5093482;28;19931;-80
2021/10/25 14:41:13;;;;;;;;;;;26.20;42.30;;;;;;5094510;28;19981;-79
2021/10/25 14:43:46;;;;;;;;;;;26.20;42.30;;;;;;5094328;28;19912;-80
2021/10/25 14:46:31;;;;;;;;;;;26.30;42.40;;;;;;5094233;28;20012;-80
2021/10/25 14:49:10;;;;;;;;;;;26.30;42.50;;;;;;5094696;28;19923;-82
2021/10/25 14:54:23;;;;;;;;;;;26.30;42.40;;;;;;5094892;28;20260;-81
2021/10/25 14:56:48;;;;;;;;;;;26.30;42.40;;;;;;5094978;28;20021;-82
2021/10/25 14:59:16;;;;;;;;;;;26.30;42.40;;;;;;5094957;28;19929;-79
2021/10/25 15:01:42;;;;;;;;;;;26.30;42.30;;;;;;5093688;28;20359;-80
2021/10/25 15:04:09;;;;;;;;;;;26.30;42.40;;;;;;5093232;28;19908;-81
2021/10/25 15:06:35;;;;;;;;;;;26.30;42.40;;;;;;5126820;28;19981;-79
2021/10/25 15:09:02;;;;;;;;;;;26.20;42.30;;;;;;5094025;28;19912;-83
2021/10/25 15:11:30;;;;;;;;;;;26.20;42.30;;;;;;5093382;28;19908;-83
2021/10/25 15:13:55;;;;;;;;;;;26.30;42.40;;;;;;5093998;28;19912;-81
2021/10/25 15:16:21;;;;;;;;;;;26.30;42.40;;;;;;5127397;27;19919;-79
2021/10/25 15:18:46;;;;;;;;;;;26.30;42.40;;;;;;5098139;28;19916;-81
2021/10/25 15:21:17;;;;;;;;;;;26.30;42.40;;;;;;5098129;28;19919;-81
2021/10/25 15:23:44;;;;;;;;;;;26.30;42.40;;;;;;5098225;28;19920;-81
2021/10/25 15:26:10;;;;;;;;;;;26.30;42.40;;;;;;5131319;27;19967;-85
2021/10/25 15:28:36;;;;;;;;;;;26.30;42.50;;;;;;5097693;28;19919;-81
2021/10/25 15:31:04;;;;;;;;;;;26.30;42.40;;;;;;5131286;27;19934;-81
2021/10/25 15:33:29;;;;;;;;;;;26.30;42.40;;;;;;5097553;28;19911;-83
2021/10/25 15:35:58;;;;;;;;;;;26.30;42.40;;;;;;5097312;28;20277;-84
2021/10/25 15:38:24;;;;;;;;;;;26.30;42.40;;;;;;5097368;28;20403;-81
2021/10/25 15:40:50;;;;;;;;;;;26.30;42.50;;;;;;5130525;27;19908;-79
2021/10/25 15:43:16;;;;;;;;;;;26.30;42.40;;;;;;5097250;28;20350;-84
2021/10/25 15:45:43;;;;;;;;;;;26.40;42.50;;;;;;5130645;27;20349;-79
2021/10/25 15:48:08;;;;;;;;;;;26.30;42.50;;;;;;5096159;28;20340;-82
2021/10/25 15:50:34;;;;;;;;;;;26.30;42.50;;;;;;5130337;27;19912;-81
2021/10/25 15:53:01;;;;;;;;;;;26.30;42.50;;;;;;5130495;27;19908;-81
2021/10/25 15:55:29;;;;;;;;;;;26.30;42.40;;;;;;5129733;27;19908;-79
2021/10/25 15:57:57;;;;;;;;;;;26.40;42.50;;;;;;5096810;28;19912;-81
2021/10/25 16:00:23;;;;;;;;;;;26.30;42.40;;;;;;5097021;28;19908;-83
2021/10/25 16:02:49;;;;;;;;;;;26.30;42.40;;;;;;5096852;28;19908;-79
2021/10/25 16:05:18;;;;;;;;;;;26.30;42.60;;;;;;5098108;28;19955;-82